GLOGT EGPF-EGJB
Flight info
| Callsign | GLOGT |
|---|---|
| Flight time | 1h 8m |
| Altitude | 37000 |
| Route | LUSIV L612 DCS N864 EGTOC/N0445F230 N864 WAL/N0502F330 N862 KARNO/N0445F230 N862 SIDHO N40 KLAKI L149 BIGNO |
| Aircraft | GLF6/M-SBDE2E3FGHIJ4J5M1RWXY/LB1D1 |
Departure
| Time | 2026-04-25 11:15 |
|---|---|
| Airport | Glasgow Airport (EGPF) |
Arrival
| Time | 2026-04-25 12:23 |
|---|---|
| Airport | Guernsey Airport (EGJB) |
| Time | Latitude | Longitude | Altitude | Speed | Heading |
|---|---|---|---|---|---|
| 2026-04-25 11:02 | 55.87213 | -4.42563 | 24 ft | 0 kts | 282° |
| 2026-04-25 11:08 | 55.87218 | -4.42606 | 23 ft | 1 kts | 285° |
| 2026-04-25 11:09 | 55.87226 | -4.42643 | 24 ft | 8 kts | 289° |
| 2026-04-25 11:09 | 55.87204 | -4.42709 | 23 ft | 6 kts | 204° |
| 2026-04-25 11:10 | 55.87152 | -4.42747 | 23 ft | 13 kts | 203° |
| 2026-04-25 11:10 | 55.87125 | -4.42768 | 23 ft | 13 kts | 202° |
| 2026-04-25 11:10 | 55.86968 | -4.42876 | 23 ft | 14 kts | 205° |
| 2026-04-25 11:10 | 55.86867 | -4.42988 | 23 ft | 21 kts | 224° |
| 2026-04-25 11:11 | 55.86802 | -4.43294 | 25 ft | 32 kts | 252° |
| 2026-04-25 11:11 | 55.86733 | -4.43674 | 25 ft | 31 kts | 251° |
| 2026-04-25 11:11 | 55.86607 | -4.43982 | 23 ft | 34 kts | 223° |
| 2026-04-25 11:11 | 55.86447 | -4.44276 | 23 ft | 32 kts | 226° |
| 2026-04-25 11:12 | 55.86303 | -4.44554 | 23 ft | 29 kts | 227° |
| 2026-04-25 11:12 | 55.86254 | -4.44705 | 23 ft | 20 kts | 282° |
| 2026-04-25 11:12 | 55.86349 | -4.44859 | 23 ft | 18 kts | 349° |
| 2026-04-25 11:12 | 55.86429 | -4.44761 | 23 ft | 0 kts | 46° |
| 2026-04-25 11:13 | 55.86435 | -4.44751 | 23 ft | 10 kts | 47° |
| 2026-04-25 11:14 | 55.86635 | -4.44372 | 23 ft | 74 kts | 46° |
| 2026-04-25 11:14 | 55.87127 | -4.43427 | 23 ft | 133 kts | 48° |
| 2026-04-25 11:14 | 55.87883 | -4.42007 | 118 ft | 177 kts | 47° |
| 2026-04-25 11:14 | 55.88749 | -4.40273 | 557 ft | 203 kts | 50° |
| 2026-04-25 11:15 | 55.89504 | -4.38745 | 1057 ft | 217 kts | 49° |
| 2026-04-25 11:15 | 55.89869 | -4.38019 | 1510 ft | 211 kts | 48° |
| 2026-04-25 11:15 | 55.90957 | -4.35902 | 1729 ft | 260 kts | 47° |
| 2026-04-25 11:15 | 55.92292 | -4.33402 | 1797 ft | 299 kts | 46° |
| 2026-04-25 11:16 | 55.93780 | -4.26938 | 1456 ft | 279 kts | 95° |
| 2026-04-25 11:16 | 55.93148 | -4.23627 | 1442 ft | 280 kts | 121° |
| 2026-04-25 11:16 | 55.92068 | -4.20872 | 1469 ft | 259 kts | 124° |
| 2026-04-25 11:17 | 55.91070 | -4.18281 | 1468 ft | 247 kts | 123° |
| 2026-04-25 11:17 | 55.90106 | -4.15722 | 1467 ft | 251 kts | 123° |
| 2026-04-25 11:17 | 55.89162 | -4.13183 | 1461 ft | 243 kts | 123° |
| 2026-04-25 11:17 | 55.88233 | -4.10672 | 1506 ft | 240 kts | 123° |
| 2026-04-25 11:18 | 55.87239 | -4.08237 | 1464 ft | 243 kts | 134° |
| 2026-04-25 11:18 | 55.85784 | -4.06808 | 1379 ft | 244 kts | 166° |
| 2026-04-25 11:18 | 55.84135 | -4.06631 | 1836 ft | 239 kts | 183° |
| 2026-04-25 11:18 | 55.83998 | -4.06649 | 1883 ft | 241 kts | 184° |
| 2026-04-25 11:19 | 55.82865 | -4.06860 | 2266 ft | 248 kts | 186° |
| 2026-04-25 11:20 | 55.81178 | -4.07211 | 2798 ft | 245 kts | 188° |
| 2026-04-25 11:20 | 55.79597 | -4.08341 | 3230 ft | 243 kts | 219° |
| 2026-04-25 11:20 | 55.78602 | -4.10749 | 3759 ft | 245 kts | 245° |
| 2026-04-25 11:20 | 55.77926 | -4.13501 | 4530 ft | 247 kts | 242° |
| 2026-04-25 11:21 | 55.76960 | -4.16067 | 5275 ft | 249 kts | 230° |
| 2026-04-25 11:21 | 55.75516 | -4.17800 | 5966 ft | 257 kts | 204° |
| 2026-04-25 11:21 | 55.73843 | -4.18919 | 6743 ft | 257 kts | 201° |
| 2026-04-25 11:21 | 55.72269 | -4.19979 | 7402 ft | 263 kts | 203° |
| 2026-04-25 11:22 | 55.70815 | -4.21133 | 8031 ft | 263 kts | 206° |
| 2026-04-25 11:22 | 55.69722 | -4.22041 | 8503 ft | 265 kts | 205° |
| 2026-04-25 11:22 | 55.67282 | -4.23029 | 9503 ft | 273 kts | 183° |
| 2026-04-25 11:22 | 55.65393 | -4.22687 | 10225 ft | 275 kts | 166° |
| 2026-04-25 11:23 | 55.63593 | -4.21399 | 10928 ft | 285 kts | 152° |
| 2026-04-25 11:23 | 55.61867 | -4.19693 | 11656 ft | 283 kts | 152° |
| 2026-04-25 11:23 | 55.60117 | -4.18019 | 12382 ft | 297 kts | 152° |
| 2026-04-25 11:23 | 55.58274 | -4.16214 | 13158 ft | 309 kts | 151° |
| 2026-04-25 11:24 | 55.56363 | -4.14309 | 13959 ft | 322 kts | 151° |
| 2026-04-25 11:24 | 55.54360 | -4.12353 | 14686 ft | 335 kts | 152° |
| 2026-04-25 11:24 | 55.52282 | -4.10340 | 15404 ft | 347 kts | 151° |
| 2026-04-25 11:24 | 55.50123 | -4.08238 | 16149 ft | 360 kts | 151° |
| 2026-04-25 11:25 | 55.47918 | -4.06082 | 16904 ft | 361 kts | 151° |
| 2026-04-25 11:25 | 55.45719 | -4.03948 | 17660 ft | 364 kts | 151° |
| 2026-04-25 11:25 | 55.43475 | -4.01774 | 18440 ft | 370 kts | 151° |
| 2026-04-25 11:25 | 55.41222 | -3.99594 | 19119 ft | 370 kts | 151° |
| 2026-04-25 11:26 | 55.38949 | -3.97390 | 19822 ft | 376 kts | 151° |
| 2026-04-25 11:26 | 55.36643 | -3.95165 | 20545 ft | 378 kts | 151° |
| 2026-04-25 11:26 | 55.34335 | -3.92933 | 21270 ft | 381 kts | 150° |
| 2026-04-25 11:26 | 55.31987 | -3.90670 | 22023 ft | 388 kts | 151° |
| 2026-04-25 11:27 | 55.29642 | -3.88417 | 22789 ft | 389 kts | 150° |
| 2026-04-25 11:27 | 55.27249 | -3.86112 | 23578 ft | 395 kts | 150° |
| 2026-04-25 11:27 | 55.24821 | -3.83779 | 24286 ft | 401 kts | 150° |
| 2026-04-25 11:27 | 55.23192 | -3.82224 | 24734 ft | 404 kts | 150° |
| 2026-04-25 11:28 | 55.19884 | -3.79062 | 25732 ft | 408 kts | 150° |
| 2026-04-25 11:28 | 55.19621 | -3.78810 | 25811 ft | 408 kts | 150° |
| 2026-04-25 11:28 | 55.17111 | -3.76408 | 26507 ft | 414 kts | 150° |
| 2026-04-25 11:28 | 55.14573 | -3.73977 | 27206 ft | 419 kts | 150° |
| 2026-04-25 11:29 | 55.12001 | -3.71532 | 27899 ft | 423 kts | 150° |
| 2026-04-25 11:29 | 55.09396 | -3.69059 | 28601 ft | 428 kts | 150° |
| 2026-04-25 11:29 | 55.06765 | -3.66554 | 29291 ft | 433 kts | 150° |
| 2026-04-25 11:29 | 55.04097 | -3.64024 | 29915 ft | 441 kts | 150° |
| 2026-04-25 11:30 | 55.01364 | -3.61437 | 30356 ft | 450 kts | 150° |
| 2026-04-25 11:30 | 54.98605 | -3.58832 | 31022 ft | 453 kts | 150° |
| 2026-04-25 11:30 | 54.95816 | -3.56193 | 31575 ft | 459 kts | 150° |
| 2026-04-25 11:30 | 54.92991 | -3.53531 | 32164 ft | 463 kts | 150° |
| 2026-04-25 11:31 | 54.90146 | -3.50855 | 32745 ft | 468 kts | 150° |
| 2026-04-25 11:31 | 54.87275 | -3.48159 | 33318 ft | 472 kts | 150° |
| 2026-04-25 11:31 | 54.84363 | -3.45429 | 33862 ft | 477 kts | 150° |
| 2026-04-25 11:31 | 54.81432 | -3.42682 | 34370 ft | 481 kts | 150° |
| 2026-04-25 11:32 | 54.78477 | -3.39921 | 34844 ft | 485 kts | 150° |
| 2026-04-25 11:32 | 54.75481 | -3.37141 | 35321 ft | 489 kts | 152° |
| 2026-04-25 11:32 | 54.72315 | -3.34927 | 35736 ft | 493 kts | 162° |
| 2026-04-25 11:32 | 54.68954 | -3.33589 | 36181 ft | 497 kts | 171° |
| 2026-04-25 11:33 | 54.65504 | -3.32992 | 36611 ft | 501 kts | 174° |
| 2026-04-25 11:33 | 54.61992 | -3.32437 | 36623 ft | 513 kts | 174° |
| 2026-04-25 11:33 | 54.58395 | -3.31852 | 36800 ft | 521 kts | 174° |
| 2026-04-25 11:33 | 54.54781 | -3.31278 | 36962 ft | 521 kts | 174° |
| 2026-04-25 11:34 | 54.47500 | -3.30137 | 36974 ft | 528 kts | 174° |
| 2026-04-25 11:34 | 54.40235 | -3.28982 | 36975 ft | 526 kts | 175° |
| 2026-04-25 11:35 | 54.32933 | -3.27838 | 36975 ft | 527 kts | 175° |
| 2026-04-25 11:35 | 54.25624 | -3.26690 | 36980 ft | 527 kts | 175° |
| 2026-04-25 11:36 | 54.18310 | -3.25548 | 36980 ft | 527 kts | 175° |
| 2026-04-25 11:36 | 54.10997 | -3.24410 | 36981 ft | 526 kts | 175° |
| 2026-04-25 11:37 | 54.03748 | -3.23284 | 36977 ft | 526 kts | 175° |
| 2026-04-25 11:37 | 53.96450 | -3.22158 | 36977 ft | 526 kts | 175° |
| 2026-04-25 11:38 | 53.89155 | -3.21034 | 36978 ft | 526 kts | 175° |
| 2026-04-25 11:38 | 53.81861 | -3.19914 | 36977 ft | 526 kts | 175° |
| 2026-04-25 11:39 | 53.74614 | -3.18805 | 36977 ft | 526 kts | 175° |
| 2026-04-25 11:39 | 53.67328 | -3.17695 | 36972 ft | 521 kts | 176° |
| 2026-04-25 11:40 | 53.63762 | -3.17151 | 36968 ft | 510 kts | 176° |
| 2026-04-25 11:40 | 53.60179 | -3.16609 | 36967 ft | 510 kts | 176° |
| 2026-04-25 11:40 | 53.53127 | -3.15542 | 36966 ft | 512 kts | 176° |
| 2026-04-25 11:41 | 53.46017 | -3.14468 | 36966 ft | 512 kts | 176° |
| 2026-04-25 11:41 | 53.38978 | -3.12611 | 36977 ft | 514 kts | 165° |
| 2026-04-25 11:42 | 53.32361 | -3.07947 | 36986 ft | 517 kts | 156° |
| 2026-04-25 11:42 | 53.25851 | -3.02753 | 36980 ft | 519 kts | 156° |
| 2026-04-25 11:43 | 53.19344 | -2.97549 | 36979 ft | 519 kts | 156° |
| 2026-04-25 11:43 | 53.12872 | -2.92412 | 36976 ft | 518 kts | 156° |
| 2026-04-25 11:44 | 53.06072 | -2.88817 | 36961 ft | 512 kts | 175° |
| 2026-04-25 11:44 | 52.98984 | -2.89000 | 36981 ft | 510 kts | 184° |
| 2026-04-25 11:45 | 52.91876 | -2.89634 | 36982 ft | 511 kts | 184° |
| 2026-04-25 11:45 | 52.84834 | -2.90952 | 36976 ft | 509 kts | 189° |
| 2026-04-25 11:46 | 52.77814 | -2.92547 | 36981 ft | 509 kts | 189° |
| 2026-04-25 11:46 | 52.70911 | -2.94138 | 36975 ft | 510 kts | 186° |
| 2026-04-25 11:47 | 52.63821 | -2.94693 | 36981 ft | 510 kts | 184° |
| 2026-04-25 11:47 | 52.56733 | -2.95342 | 36984 ft | 510 kts | 184° |
| 2026-04-25 11:48 | 52.49679 | -2.95878 | 36980 ft | 510 kts | 184° |
| 2026-04-25 11:48 | 52.42588 | -2.96491 | 36979 ft | 510 kts | 184° |
| 2026-04-25 11:49 | 52.35500 | -2.97052 | 36978 ft | 510 kts | 184° |
| 2026-04-25 11:49 | 52.28409 | -2.97645 | 36974 ft | 510 kts | 184° |
| 2026-04-25 11:50 | 52.21318 | -2.98214 | 36975 ft | 510 kts | 184° |
| 2026-04-25 11:50 | 52.14227 | -2.98796 | 36976 ft | 510 kts | 184° |
| 2026-04-25 11:51 | 52.07143 | -2.99365 | 36973 ft | 510 kts | 184° |
| 2026-04-25 11:51 | 52.00057 | -2.99940 | 36964 ft | 510 kts | 184° |
| 2026-04-25 11:52 | 51.92975 | -3.00508 | 36964 ft | 510 kts | 184° |
| 2026-04-25 11:52 | 51.85952 | -3.01326 | 36967 ft | 508 kts | 189° |
| 2026-04-25 11:53 | 51.78939 | -3.02818 | 36976 ft | 508 kts | 188° |
| 2026-04-25 11:53 | 51.71911 | -3.04265 | 36972 ft | 509 kts | 189° |
| 2026-04-25 11:54 | 51.64882 | -3.05739 | 36971 ft | 509 kts | 188° |
| 2026-04-25 11:55 | 51.54386 | -3.07912 | 36973 ft | 509 kts | 189° |
| 2026-04-25 11:55 | 51.47355 | -3.09360 | 36966 ft | 509 kts | 188° |
| 2026-04-25 11:56 | 51.40329 | -3.10807 | 36967 ft | 509 kts | 189° |
| 2026-04-25 11:56 | 51.33299 | -3.12248 | 36966 ft | 509 kts | 189° |
| 2026-04-25 11:57 | 51.26267 | -3.13686 | 36962 ft | 509 kts | 189° |
| 2026-04-25 11:57 | 51.19230 | -3.15121 | 36675 ft | 513 kts | 189° |
| 2026-04-25 11:57 | 51.15707 | -3.15836 | 36154 ft | 507 kts | 189° |
| 2026-04-25 11:58 | 51.12234 | -3.16541 | 35630 ft | 501 kts | 189° |
| 2026-04-25 11:58 | 51.08790 | -3.17240 | 35076 ft | 496 kts | 189° |
| 2026-04-25 11:58 | 51.05390 | -3.17929 | 34541 ft | 491 kts | 189° |
| 2026-04-25 11:58 | 51.02014 | -3.18610 | 33986 ft | 486 kts | 189° |
| 2026-04-25 11:59 | 50.98674 | -3.19284 | 33388 ft | 482 kts | 189° |
| 2026-04-25 11:59 | 50.95358 | -3.19955 | 32792 ft | 478 kts | 189° |
| 2026-04-25 11:59 | 50.92068 | -3.20616 | 32213 ft | 474 kts | 189° |
| 2026-04-25 12:00 | 50.85562 | -3.21922 | 31093 ft | 468 kts | 190° |
| 2026-04-25 12:00 | 50.82339 | -3.22571 | 30553 ft | 465 kts | 190° |
| 2026-04-25 12:00 | 50.75915 | -3.23439 | 29343 ft | 464 kts | 180° |
| 2026-04-25 12:01 | 50.72713 | -3.22903 | 28746 ft | 463 kts | 172° |
| 2026-04-25 12:01 | 50.69549 | -3.22003 | 28164 ft | 461 kts | 172° |
| 2026-04-25 12:01 | 50.66396 | -3.21154 | 27585 ft | 458 kts | 173° |
| 2026-04-25 12:01 | 50.63268 | -3.20311 | 27025 ft | 455 kts | 172° |
| 2026-04-25 12:02 | 50.57204 | -3.18630 | 25935 ft | 448 kts | 172° |
| 2026-04-25 12:02 | 50.54133 | -3.17796 | 25399 ft | 445 kts | 172° |
| 2026-04-25 12:02 | 50.52115 | -3.17248 | 25044 ft | 443 kts | 172° |
| 2026-04-25 12:03 | 50.49086 | -3.16420 | 24525 ft | 440 kts | 172° |
| 2026-04-25 12:03 | 50.46078 | -3.15600 | 24011 ft | 437 kts | 172° |
| 2026-04-25 12:03 | 50.43092 | -3.14787 | 23451 ft | 434 kts | 172° |
| 2026-04-25 12:03 | 50.39175 | -3.13705 | 22662 ft | 429 kts | 170° |
| 2026-04-25 12:04 | 50.36326 | -3.12330 | 22070 ft | 428 kts | 159° |
| 2026-04-25 12:04 | 50.34506 | -3.10995 | 21687 ft | 427 kts | 153° |
| 2026-04-25 12:04 | 50.31906 | -3.08803 | 21130 ft | 423 kts | 153° |
| 2026-04-25 12:04 | 50.29311 | -3.06667 | 20581 ft | 419 kts | 154° |
| 2026-04-25 12:05 | 50.26741 | -3.04547 | 20037 ft | 416 kts | 153° |
| 2026-04-25 12:05 | 50.24199 | -3.02426 | 19502 ft | 413 kts | 153° |
| 2026-04-25 12:05 | 50.21672 | -3.00329 | 18982 ft | 409 kts | 153° |
| 2026-04-25 12:05 | 50.19197 | -2.98289 | 18469 ft | 406 kts | 153° |
| 2026-04-25 12:06 | 50.16706 | -2.96232 | 17887 ft | 403 kts | 153° |
| 2026-04-25 12:06 | 50.14236 | -2.94194 | 17306 ft | 400 kts | 153° |
| 2026-04-25 12:06 | 50.11785 | -2.92174 | 16742 ft | 397 kts | 153° |
| 2026-04-25 12:06 | 50.09354 | -2.90173 | 16186 ft | 394 kts | 153° |
| 2026-04-25 12:07 | 50.06938 | -2.88189 | 15634 ft | 391 kts | 153° |
| 2026-04-25 12:07 | 50.04540 | -2.86218 | 15093 ft | 388 kts | 153° |
| 2026-04-25 12:07 | 50.02165 | -2.84271 | 14569 ft | 384 kts | 154° |
| 2026-04-25 12:07 | 49.99771 | -2.82491 | 14028 ft | 380 kts | 161° |
| 2026-04-25 12:08 | 49.97238 | -2.81417 | 13435 ft | 375 kts | 168° |
| 2026-04-25 12:08 | 49.94762 | -2.80445 | 12839 ft | 373 kts | 166° |
| 2026-04-25 12:08 | 49.92233 | -2.79396 | 12167 ft | 387 kts | 166° |
| 2026-04-25 12:08 | 49.89630 | -2.78367 | 11476 ft | 374 kts | 167° |
| 2026-04-25 12:09 | 49.87199 | -2.77425 | 10765 ft | 346 kts | 166° |
| 2026-04-25 12:09 | 49.84955 | -2.76535 | 10304 ft | 318 kts | 166° |
| 2026-04-25 12:09 | 49.82920 | -2.75727 | 10024 ft | 289 kts | 166° |
| 2026-04-25 12:09 | 49.80991 | -2.74967 | 9240 ft | 283 kts | 166° |
| 2026-04-25 12:10 | 49.79103 | -2.74225 | 8473 ft | 277 kts | 167° |
| 2026-04-25 12:10 | 49.77248 | -2.73579 | 7707 ft | 270 kts | 175° |
| 2026-04-25 12:10 | 49.75432 | -2.73990 | 6939 ft | 263 kts | 204° |
| 2026-04-25 12:10 | 49.74014 | -2.75681 | 6177 ft | 257 kts | 233° |
| 2026-04-25 12:11 | 49.73333 | -2.78170 | 5435 ft | 251 kts | 263° |
| 2026-04-25 12:11 | 49.73537 | -2.80796 | 4693 ft | 247 kts | 291° |
| 2026-04-25 12:11 | 49.74570 | -2.82816 | 4265 ft | 235 kts | 325° |
| 2026-04-25 12:11 | 49.75948 | -2.84146 | 4344 ft | 241 kts | 317° |
| 2026-04-25 12:12 | 49.76786 | -2.86283 | 4359 ft | 234 kts | 282° |
| 2026-04-25 12:12 | 49.76828 | -2.87949 | 4278 ft | 237 kts | 260° |
| 2026-04-25 12:12 | 49.75727 | -2.90865 | 4031 ft | 240 kts | 218° |
| 2026-04-25 12:12 | 49.74246 | -2.91935 | 3907 ft | 230 kts | 197° |
| 2026-04-25 12:13 | 49.72779 | -2.92560 | 3890 ft | 217 kts | 196° |
| 2026-04-25 12:13 | 49.71401 | -2.93135 | 3880 ft | 205 kts | 195° |
| 2026-04-25 12:13 | 49.70034 | -2.93414 | 3841 ft | 194 kts | 177° |
| 2026-04-25 12:13 | 49.68712 | -2.93190 | 3885 ft | 191 kts | 175° |
| 2026-04-25 12:14 | 49.67385 | -2.92999 | 3904 ft | 191 kts | 175° |
| 2026-04-25 12:14 | 49.66063 | -2.92797 | 3906 ft | 191 kts | 175° |
| 2026-04-25 12:14 | 49.64737 | -2.92587 | 3899 ft | 192 kts | 175° |
| 2026-04-25 12:14 | 49.63429 | -2.92377 | 3902 ft | 191 kts | 175° |
| 2026-04-25 12:15 | 49.62105 | -2.92161 | 3904 ft | 191 kts | 175° |
| 2026-04-25 12:15 | 49.60755 | -2.91945 | 3691 ft | 201 kts | 175° |
| 2026-04-25 12:15 | 49.59348 | -2.91724 | 3373 ft | 204 kts | 175° |
| 2026-04-25 12:15 | 49.57920 | -2.91516 | 3037 ft | 207 kts | 175° |
| 2026-04-25 12:16 | 49.56473 | -2.91309 | 2704 ft | 210 kts | 175° |
| 2026-04-25 12:16 | 49.55012 | -2.91115 | 2365 ft | 212 kts | 175° |
| 2026-04-25 12:16 | 49.53532 | -2.90929 | 2034 ft | 214 kts | 175° |
| 2026-04-25 12:16 | 49.52086 | -2.90758 | 1992 ft | 201 kts | 175° |
| 2026-04-25 12:17 | 49.50739 | -2.90599 | 1979 ft | 187 kts | 175° |
| 2026-04-25 12:17 | 49.49487 | -2.90451 | 1974 ft | 176 kts | 175° |
| 2026-04-25 12:17 | 49.48270 | -2.90311 | 1983 ft | 175 kts | 175° |
| 2026-04-25 12:17 | 49.47058 | -2.90172 | 1982 ft | 175 kts | 175° |
| 2026-04-25 12:18 | 49.45865 | -2.90031 | 1991 ft | 171 kts | 175° |
| 2026-04-25 12:18 | 49.44693 | -2.89892 | 1990 ft | 164 kts | 175° |
| 2026-04-25 12:18 | 49.43557 | -2.89760 | 1993 ft | 163 kts | 175° |
| 2026-04-25 12:18 | 49.42506 | -2.89217 | 1917 ft | 166 kts | 138° |
| 2026-04-25 12:19 | 49.42373 | -2.86565 | 2016 ft | 166 kts | 61° |
| 2026-04-25 12:19 | 49.42758 | -2.84324 | 2000 ft | 168 kts | 97° |
| 2026-04-25 12:19 | 49.42701 | -2.82571 | 1964 ft | 165 kts | 81° |
| 2026-04-25 12:20 | 49.42911 | -2.80891 | 2013 ft | 158 kts | 87° |
| 2026-04-25 12:20 | 49.42942 | -2.79315 | 1963 ft | 140 kts | 86° |
| 2026-04-25 12:20 | 49.43014 | -2.77819 | 1998 ft | 143 kts | 88° |
| 2026-04-25 12:20 | 49.43039 | -2.76280 | 2000 ft | 142 kts | 89° |
| 2026-04-25 12:21 | 49.43102 | -2.74767 | 1998 ft | 144 kts | 87° |
| 2026-04-25 12:21 | 49.43125 | -2.73220 | 1887 ft | 148 kts | 89° |
| 2026-04-25 12:21 | 49.43184 | -2.71637 | 1687 ft | 148 kts | 86° |
| 2026-04-25 12:21 | 49.43216 | -2.70080 | 1481 ft | 144 kts | 89° |
| 2026-04-25 12:22 | 49.43268 | -2.68551 | 1290 ft | 142 kts | 86° |
| 2026-04-25 12:22 | 49.43329 | -2.67054 | 1038 ft | 142 kts | 85° |
| 2026-04-25 12:22 | 49.43380 | -2.65556 | 771 ft | 140 kts | 89° |
| 2026-04-25 12:22 | 49.43396 | -2.64113 | 580 ft | 129 kts | 88° |
| 2026-04-25 12:23 | 49.43435 | -2.62724 | 461 ft | 132 kts | 88° |
| 2026-04-25 12:23 | 49.43466 | -2.61378 | 348 ft | 117 kts | 89° |
| 2026-04-25 12:23 | 49.43492 | -2.60339 | 336 ft | 58 kts | 88° |
| 2026-04-25 12:23 | 49.43492 | -2.59883 | 334 ft | 19 kts | 114° |
| 2026-04-25 12:24 | 49.43461 | -2.59863 | 335 ft | 9 kts | 171° |
| 2026-04-25 12:24 | 49.43390 | -2.59860 | 333 ft | 10 kts | 178° |
| 2026-04-25 12:24 | 49.43347 | -2.59812 | 333 ft | 7 kts | 98° |
| 2026-04-25 12:24 | 49.43358 | -2.59686 | 332 ft | 22 kts | 88° |
| 2026-04-25 12:25 | 49.43366 | -2.59460 | 332 ft | 20 kts | 87° |
| 2026-04-25 12:25 | 49.43370 | -2.59269 | 334 ft | 17 kts | 89° |
| 2026-04-25 12:25 | 49.43379 | -2.59101 | 334 ft | 15 kts | 78° |
| 2026-04-25 12:25 | 49.43389 | -2.58956 | 334 ft | 13 kts | 90° |
| 2026-04-25 12:26 | 49.43362 | -2.58927 | 334 ft | 4 kts | 208° |
| 2026-04-25 12:26 | 49.43354 | -2.58935 | 334 ft | 0 kts | 225° |